createdAt,value
2022-12-14T00:00:09.460Z,-1.03
2022-12-14T00:03:12.253Z,-1.05
2022-12-14T00:06:17.932Z,-1.03
2022-12-14T00:09:22.036Z,-0.99
2022-12-14T00:12:24.641Z,-0.97
2022-12-14T00:15:27.622Z,-1.02
2022-12-14T00:18:30.307Z,-0.97
2022-12-14T00:21:32.952Z,-1.00
2022-12-14T00:24:36.894Z,-1.04
2022-12-14T00:27:44.510Z,-1.05
2022-12-14T00:30:47.134Z,-1.05
2022-12-14T00:33:50.553Z,-1.11
2022-12-14T00:36:53.172Z,-1.06
2022-12-14T00:39:57.099Z,-1.07
2022-12-14T00:42:59.685Z,-1.21
2022-12-14T00:46:02.392Z,-1.17
2022-12-14T00:49:05.101Z,-1.27
2022-12-14T00:52:07.684Z,-1.32
2022-12-14T00:55:11.862Z,-1.42
2022-12-14T00:58:16.462Z,-1.35
2022-12-14T01:01:19.282Z,-1.44
2022-12-14T01:04:24.460Z,-1.37
2022-12-14T01:07:27.083Z,-1.45
2022-12-14T01:10:31.054Z,-1.44
2022-12-14T01:13:33.928Z,-1.52
2022-12-14T01:16:36.540Z,-1.56
2022-12-14T01:19:39.177Z,-1.57
2022-12-14T01:22:41.756Z,-1.47
2022-12-14T01:25:45.726Z,-1.67
2022-12-14T01:28:53.375Z,-1.64
2022-12-14T01:31:55.956Z,-1.59
2022-12-14T01:34:58.558Z,-1.43
2022-12-14T01:38:01.136Z,-1.54
2022-12-14T01:41:06.202Z,-1.55
2022-12-14T01:44:46.012Z,-1.61
2022-12-14T01:47:52.767Z,-1.65
2022-12-14T01:50:55.409Z,-1.82
2022-12-14T01:53:59.401Z,-1.61
2022-12-14T01:57:03.548Z,-1.57
2022-12-14T02:00:10.270Z,-1.53
2022-12-14T02:03:17.193Z,-1.55
2022-12-14T02:06:26.440Z,-1.64
2022-12-14T02:09:33.021Z,-1.59
2022-12-14T02:12:42.685Z,-1.41
2022-12-14T02:15:45.883Z,-1.58
2022-12-14T02:18:48.488Z,-1.59
2022-12-14T02:22:10.774Z,-1.55
2022-12-14T02:25:49.479Z,-1.68
2022-12-14T02:29:32.538Z,-1.63
2022-12-14T02:32:47.219Z,-1.69
2022-12-14T02:35:55.354Z,-1.72
2022-12-14T02:39:08.491Z,-1.62
2022-12-14T02:42:14.782Z,-1.66
2022-12-14T02:45:26.794Z,-1.67
2022-12-14T02:48:36.866Z,-1.54
2022-12-14T02:51:52.109Z,-1.55
2022-12-14T02:55:01.898Z,-1.65
2022-12-14T02:58:09.910Z,-1.67
2022-12-14T03:01:17.940Z,-1.79
2022-12-14T03:04:20.698Z,-1.81
2022-12-14T03:07:32.410Z,-1.67
2022-12-14T03:10:40.504Z,-1.69
2022-12-14T03:13:51.066Z,-1.67
2022-12-14T03:17:00.404Z,-1.67
2022-12-14T03:20:09.763Z,-1.83
2022-12-14T03:23:15.867Z,-1.88
2022-12-14T03:26:25.943Z,-1.71
2022-12-14T03:29:32.233Z,-1.84
2022-12-14T03:32:41.960Z,-1.81
2022-12-14T03:35:50.608Z,-1.75
2022-12-14T03:38:58.054Z,-1.89
2022-12-14T03:42:11.098Z,-1.89
2022-12-14T03:45:19.201Z,-1.96
2022-12-14T03:48:32.530Z,-1.97
2022-12-14T03:51:40.859Z,-1.95
2022-12-14T03:54:50.629Z,-2.05
2022-12-14T03:58:20.414Z,-1.97
2022-12-14T04:01:36.042Z,-2.00
2022-12-14T04:04:47.624Z,-2.10
2022-12-14T04:08:01.036Z,-2.03
2022-12-14T04:11:23.585Z,-2.03
2022-12-14T04:14:49.839Z,-2.11
2022-12-14T04:18:14.185Z,-2.23
2022-12-14T04:21:25.147Z,-2.15
2022-12-14T04:24:50.921Z,-2.14
2022-12-14T04:27:59.610Z,-2.11
2022-12-14T04:31:06.213Z,-2.07
2022-12-14T04:34:12.904Z,-2.17
2022-12-14T04:37:20.550Z,-2.18
2022-12-14T04:40:27.034Z,-2.14
2022-12-14T04:43:34.748Z,-2.26
2022-12-14T04:46:40.921Z,-2.14
2022-12-14T04:49:49.227Z,-2.20
2022-12-14T04:53:00.029Z,-2.21
2022-12-14T04:56:11.725Z,-2.29
2022-12-14T04:59:14.588Z,-2.38
2022-12-14T05:02:24.500Z,-2.45
2022-12-14T05:05:35.433Z,-2.32
2022-12-14T05:08:57.672Z,-2.53
2022-12-14T05:12:05.945Z,-2.54
2022-12-14T05:15:14.179Z,-2.47
2022-12-14T05:18:17.353Z,-2.71
2022-12-14T05:21:33.847Z,-2.45
2022-12-14T05:24:37.917Z,-2.32
2022-12-14T05:27:40.513Z,-2.48
2022-12-14T05:30:43.264Z,-2.54
2022-12-14T05:33:51.539Z,-2.43
2022-12-14T05:36:54.455Z,-2.62
2022-12-14T05:39:58.565Z,-2.59
2022-12-14T05:43:08.194Z,-2.67
2022-12-14T05:46:12.251Z,-2.49
2022-12-14T05:49:14.894Z,-2.67
2022-12-14T05:52:17.971Z,-2.71
2022-12-14T05:55:22.276Z,-2.72
2022-12-14T05:58:24.889Z,-2.75
2022-12-14T06:01:27.569Z,-2.74
2022-12-14T06:04:30.385Z,-2.62
2022-12-14T06:07:32.997Z,-2.68
2022-12-14T06:10:36.953Z,-2.79
2022-12-14T06:13:41.143Z,-2.86
2022-12-14T06:16:45.428Z,-2.92
2022-12-14T06:19:50.164Z,-2.94
2022-12-14T06:22:55.289Z,-2.98
2022-12-14T06:25:59.254Z,-2.73
2022-12-14T06:29:01.836Z,-2.81
2022-12-14T06:32:04.601Z,-2.70
2022-12-14T06:35:08.681Z,-2.86
2022-12-14T06:38:11.484Z,-2.99
2022-12-14T06:41:15.638Z,-3.03
2022-12-14T06:44:18.417Z,-2.87
2022-12-14T06:47:21.002Z,-2.98
2022-12-14T06:50:23.573Z,-2.95
2022-12-14T06:53:26.462Z,-2.92
2022-12-14T06:56:30.968Z,-3.09
2022-12-14T06:59:33.569Z,-3.06
2022-12-14T07:02:36.356Z,-3.05
2022-12-14T07:05:41.959Z,-3.19
2022-12-14T07:08:47.379Z,-3.11
2022-12-14T07:11:52.220Z,-3.09
2022-12-14T07:14:55.087Z,-3.21
2022-12-14T07:17:57.676Z,-3.27
2022-12-14T07:21:02.311Z,-3.42
2022-12-14T07:24:05.359Z,-3.37
2022-12-14T07:27:09.309Z,-3.41
2022-12-14T07:30:12.636Z,-3.45
2022-12-14T07:33:15.238Z,-3.35
2022-12-14T07:36:19.135Z,-3.47
2022-12-14T07:39:22.789Z,-3.42
2022-12-14T07:42:26.883Z,-3.56
2022-12-14T07:45:29.523Z,-3.51
2022-12-14T07:48:32.575Z,-3.47
2022-12-14T07:51:37.653Z,-3.47
2022-12-14T07:54:40.232Z,-3.55
2022-12-14T07:57:44.368Z,-3.51
2022-12-14T08:00:48.217Z,-3.52
2022-12-14T08:03:52.781Z,-3.64
2022-12-14T08:06:55.360Z,-3.62
2022-12-14T08:09:58.009Z,-3.50
2022-12-14T08:13:01.955Z,-3.45
2022-12-14T08:16:05.700Z,-3.49
2022-12-14T08:19:08.311Z,-3.39
2022-12-14T08:22:11.440Z,-3.35
2022-12-14T08:25:14.035Z,-3.52
2022-12-14T08:28:18.008Z,-3.52
2022-12-14T08:31:22.796Z,-3.54
2022-12-14T08:34:25.393Z,-3.38
2022-12-14T08:37:27.980Z,-3.19
2022-12-14T08:40:32.278Z,-3.26
2022-12-14T08:43:37.365Z,-3.10
2022-12-14T08:46:40.197Z,-3.07
2022-12-14T08:49:42.809Z,-2.88
2022-12-14T08:52:48.217Z,-2.98
2022-12-14T08:55:50.810Z,-2.85
2022-12-14T08:58:54.794Z,-2.80
2022-12-14T09:01:57.600Z,-2.72
2022-12-14T09:05:00.294Z,-2.78
2022-12-14T09:08:02.880Z,-2.87
2022-12-14T09:11:07.076Z,-2.56
2022-12-14T09:14:11.053Z,-2.35
2022-12-14T09:17:14.168Z,-2.22
2022-12-14T09:20:17.075Z,-2.14
2022-12-14T09:23:19.656Z,-2.06
2022-12-14T09:26:24.510Z,-2.00
2022-12-14T09:29:28.862Z,-1.78
2022-12-14T09:32:31.595Z,-1.67
2022-12-14T09:35:34.174Z,-1.48
2022-12-14T09:38:39.197Z,-1.36
2022-12-14T09:41:57.696Z,-1.43
2022-12-14T09:45:12.508Z,-1.35
2022-12-14T09:48:19.536Z,-1.33
2022-12-14T09:51:23.853Z,-1.30
2022-12-14T09:54:29.363Z,-1.27
2022-12-14T09:57:39.010Z,-1.36
2022-12-14T10:00:53.161Z,-1.27
2022-12-14T10:04:06.008Z,-1.10
2022-12-14T10:07:17.715Z,-1.08
2022-12-14T10:10:26.580Z,-1.04
2022-12-14T10:13:38.438Z,-0.99
2022-12-14T10:16:52.628Z,-0.92
2022-12-14T10:19:57.420Z,-1.02
2022-12-14T10:23:02.348Z,-0.92
2022-12-14T10:26:08.992Z,-0.84
2022-12-14T10:29:17.994Z,-0.81
2022-12-14T10:32:28.312Z,-0.84
2022-12-14T10:35:36.857Z,-0.66
2022-12-14T10:38:46.021Z,-0.57
2022-12-14T10:41:59.701Z,-0.41
2022-12-14T10:45:39.875Z,0.00
2022-12-14T10:48:45.107Z,0.36
2022-12-14T10:51:51.995Z,0.69
2022-12-14T10:54:59.618Z,1.00
2022-12-14T10:58:02.200Z,1.38
2022-12-14T11:01:04.992Z,1.91
2022-12-14T11:04:19.259Z,2.49
2022-12-14T11:07:25.651Z,2.79
2022-12-14T11:10:29.391Z,3.76
2022-12-14T11:13:32.031Z,4.31
2022-12-14T11:16:37.463Z,3.67
2022-12-14T11:19:41.663Z,3.50
2022-12-14T11:22:45.424Z,2.92
2022-12-14T11:25:51.395Z,2.03
2022-12-14T11:28:55.804Z,1.47
2022-12-14T11:32:00.224Z,1.18
2022-12-14T11:35:04.359Z,1.16
2022-12-14T11:38:07.283Z,0.95
2022-12-14T11:41:21.486Z,0.88
2022-12-14T11:44:26.248Z,0.76
2022-12-14T11:47:29.121Z,0.73
2022-12-14T11:50:33.099Z,0.89
2022-12-14T11:53:35.696Z,0.86
2022-12-14T11:56:38.351Z,0.91
2022-12-14T11:59:48.550Z,0.83
2022-12-14T12:03:00.720Z,0.72
2022-12-14T12:06:07.895Z,0.69
2022-12-14T12:09:23.424Z,0.76
2022-12-14T12:12:26.055Z,0.83
2022-12-14T12:15:36.828Z,0.85
2022-12-14T12:18:46.615Z,0.82
2022-12-14T12:21:52.173Z,0.59
2022-12-14T12:25:33.667Z,0.70
2022-12-14T12:28:26.930Z,0.69
2022-12-14T12:31:35.506Z,0.92
2022-12-14T12:34:44.978Z,0.97
2022-12-14T12:37:52.653Z,1.17
2022-12-14T12:41:04.192Z,1.21
2022-12-14T12:44:23.980Z,1.58
2022-12-14T12:47:43.179Z,2.01
2022-12-14T12:50:52.519Z,2.62
2022-12-14T12:54:00.303Z,3.11
2022-12-14T12:57:05.933Z,3.08
2022-12-14T13:00:15.512Z,3.23
2022-12-14T13:03:23.647Z,3.46
2022-12-14T13:06:31.618Z,2.64
2022-12-14T13:09:42.374Z,2.26
2022-12-14T13:12:48.964Z,1.76
2022-12-14T13:15:55.136Z,1.17
2022-12-14T13:19:32.093Z,1.52
2022-12-14T13:22:29.469Z,1.42
2022-12-14T13:25:48.968Z,1.21
2022-12-14T13:29:02.661Z,1.24
2022-12-14T13:32:14.523Z,1.23
2022-12-14T13:35:34.898Z,1.08
2022-12-14T13:39:02.378Z,1.00
2022-12-14T13:42:09.196Z,1.13
2022-12-14T13:45:18.974Z,1.17
2022-12-14T13:48:24.945Z,1.02
2022-12-14T13:51:30.502Z,1.00
2022-12-14T13:54:36.039Z,1.02
2022-12-14T13:57:39.977Z,1.02
2022-12-14T14:00:57.868Z,0.92
2022-12-14T14:04:22.188Z,0.96
2022-12-14T14:07:50.432Z,0.91
2022-12-14T14:11:02.459Z,0.95
2022-12-14T14:14:47.917Z,0.98
2022-12-14T14:17:53.849Z,0.90
2022-12-14T14:21:31.343Z,0.83
2022-12-14T14:24:56.754Z,0.94
2022-12-14T14:28:01.579Z,0.90
2022-12-14T14:31:05.947Z,0.94
2022-12-14T14:34:21.913Z,0.94
2022-12-14T14:37:36.184Z,0.66
2022-12-14T14:41:13.939Z,0.78
2022-12-14T14:44:05.790Z,0.64
2022-12-14T14:47:24.170Z,0.53
2022-12-14T14:50:32.654Z,0.58
2022-12-14T14:53:36.301Z,0.34
2022-12-14T14:56:39.993Z,0.21
2022-12-14T14:59:51.176Z,0.13
2022-12-14T15:02:55.826Z,0.11
2022-12-14T15:06:00.608Z,0.09
2022-12-14T15:09:08.075Z,-0.01
2022-12-14T15:12:25.707Z,-0.06
2022-12-14T15:15:35.740Z,0.11
2022-12-14T15:18:39.681Z,-0.03
2022-12-14T15:21:42.751Z,-0.11
2022-12-14T15:24:47.494Z,-0.10
2022-12-14T15:27:50.897Z,-0.35
2022-12-14T15:30:54.958Z,-0.51
2022-12-14T15:34:00.150Z,-0.67
2022-12-14T15:37:03.145Z,-0.69
2022-12-14T15:40:08.401Z,-0.61
2022-12-14T15:43:19.049Z,-0.61
2022-12-14T15:46:26.544Z,-0.60
2022-12-14T15:49:30.569Z,-0.75
2022-12-14T15:52:33.987Z,-0.76
2022-12-14T15:55:38.729Z,-0.86
2022-12-14T15:58:42.001Z,-0.73
2022-12-14T16:01:53.709Z,-0.84
2022-12-14T16:05:01.580Z,-0.96
2022-12-14T16:08:04.512Z,-1.07
2022-12-14T16:11:13.866Z,-1.01
2022-12-14T16:14:21.352Z,-1.17
2022-12-14T16:17:27.359Z,-1.38
2022-12-14T16:20:32.815Z,-1.51
2022-12-14T16:23:41.980Z,-1.40
2022-12-14T16:26:57.352Z,-1.43
2022-12-14T16:30:09.144Z,-1.45
2022-12-14T16:33:18.886Z,-1.57
2022-12-14T16:36:26.293Z,-1.50
2022-12-14T16:39:35.208Z,-1.53
2022-12-14T16:42:37.813Z,-1.54
2022-12-14T16:46:14.080Z,-1.54
2022-12-14T16:49:22.183Z,-1.67
2022-12-14T16:52:28.783Z,-1.76
2022-12-14T16:55:31.428Z,-1.88
2022-12-14T16:58:34.220Z,-1.90
2022-12-14T17:01:42.662Z,-1.92
2022-12-14T17:04:45.406Z,-1.77
2022-12-14T17:07:50.083Z,-1.74
2022-12-14T17:10:52.814Z,-1.84
2022-12-14T17:13:55.723Z,-1.97
2022-12-14T17:17:01.842Z,-1.92
2022-12-14T17:20:11.965Z,-2.08
2022-12-14T17:23:18.878Z,-2.22
2022-12-14T17:26:23.752Z,-2.26
2022-12-14T17:29:28.359Z,-2.21
2022-12-14T17:32:31.519Z,-2.25
2022-12-14T17:35:34.134Z,-2.29
2022-12-14T17:38:38.128Z,-2.19
2022-12-14T17:41:43.279Z,-2.29
2022-12-14T17:44:52.076Z,-2.21
2022-12-14T17:47:55.421Z,-2.42
2022-12-14T17:50:58.038Z,-2.34
2022-12-14T17:54:01.993Z,-2.16
2022-12-14T17:57:07.319Z,-2.11
2022-12-14T18:00:32.920Z,-2.02
2022-12-14T18:03:37.033Z,-2.07
2022-12-14T18:06:39.865Z,-1.96
2022-12-14T18:09:44.109Z,-2.00
2022-12-14T18:12:46.752Z,-1.75
2022-12-14T18:15:51.550Z,-1.67
2022-12-14T18:18:55.189Z,-1.54
2022-12-14T18:21:58.003Z,-1.46
2022-12-14T18:25:02.101Z,-1.46
2022-12-14T18:28:06.849Z,-1.38
2022-12-14T18:31:20.235Z,-1.32
2022-12-14T18:34:22.846Z,-1.38
2022-12-14T18:37:28.389Z,-1.56
2022-12-14T18:40:36.675Z,-1.38
2022-12-14T18:43:43.638Z,-1.25
2022-12-14T18:46:49.309Z,-1.46
2022-12-14T18:49:52.398Z,-1.51
2022-12-14T18:52:56.285Z,-1.48
2022-12-14T18:56:09.428Z,-1.30
2022-12-14T18:59:12.023Z,-1.41
2022-12-14T19:02:15.639Z,-1.57
2022-12-14T19:05:25.595Z,-1.57
2022-12-14T19:08:28.623Z,-1.64
2022-12-14T19:11:35.074Z,-1.58
2022-12-14T19:14:37.664Z,-1.56
2022-12-14T19:17:40.267Z,-1.63
2022-12-14T19:20:42.833Z,-1.62
2022-12-14T19:23:45.741Z,-1.72
2022-12-14T19:26:49.962Z,-1.75
2022-12-14T19:29:52.554Z,-1.63
2022-12-14T19:32:57.072Z,-1.86
2022-12-14T19:36:00.161Z,-1.95
2022-12-14T19:39:02.738Z,-1.88
2022-12-14T19:42:06.766Z,-1.93
2022-12-14T19:45:11.101Z,-2.00
2022-12-14T19:48:13.850Z,-2.03
2022-12-14T19:51:18.285Z,-2.06
2022-12-14T19:54:20.935Z,-2.09
2022-12-14T19:57:24.881Z,-2.13
2022-12-14T20:00:27.492Z,-2.02
2022-12-14T20:03:30.748Z,-2.11
2022-12-14T20:06:34.497Z,-2.24
2022-12-14T20:09:37.239Z,-2.10
2022-12-14T20:12:41.172Z,-2.11
2022-12-14T20:15:48.998Z,-2.07
2022-12-14T20:18:51.890Z,-2.25
2022-12-14T20:21:54.476Z,-2.40
2022-12-14T20:24:57.065Z,-2.28
2022-12-14T20:28:01.043Z,-2.27
2022-12-14T20:31:06.131Z,-2.30
2022-12-14T20:34:08.970Z,-2.34
2022-12-14T20:37:11.623Z,-2.29
2022-12-14T20:40:14.763Z,-2.27
2022-12-14T20:43:18.734Z,-2.15
2022-12-14T20:46:27.320Z,-2.16
2022-12-14T20:49:32.749Z,-2.09
2022-12-14T20:52:35.333Z,-2.13
2022-12-14T20:55:38.054Z,-2.19
2022-12-14T20:58:46.923Z,-2.03
2022-12-14T21:01:55.489Z,-2.20
2022-12-14T21:04:59.042Z,-2.30
2022-12-14T21:08:01.638Z,-2.11
2022-12-14T21:11:24.877Z,-2.23
2022-12-14T21:14:30.561Z,-2.12
2022-12-14T21:17:33.622Z,-2.24
2022-12-14T21:20:37.414Z,-2.19
2022-12-14T21:23:41.925Z,-2.32
2022-12-14T21:26:44.776Z,-2.32
2022-12-14T21:29:54.005Z,-2.26
2022-12-14T21:32:56.621Z,-2.44
2022-12-14T21:35:59.249Z,-2.41
2022-12-14T21:39:03.292Z,-2.45
2022-12-14T21:42:15.315Z,-2.44
2022-12-14T21:45:19.253Z,-2.39
2022-12-14T21:48:21.858Z,-2.34
2022-12-14T21:51:24.428Z,-2.29
2022-12-14T21:54:27.235Z,-2.31
2022-12-14T21:57:50.386Z,-2.27
2022-12-14T22:00:54.750Z,-2.26
2022-12-14T22:03:57.402Z,-2.53
2022-12-14T22:07:01.014Z,-2.48
2022-12-14T22:10:03.996Z,-2.65
2022-12-14T22:13:06.563Z,-2.58
2022-12-14T22:16:11.458Z,-2.54
2022-12-14T22:19:16.012Z,-2.60
2022-12-14T22:22:18.895Z,-2.61
2022-12-14T22:25:21.472Z,-2.73
2022-12-14T22:28:24.577Z,-2.71
2022-12-14T22:31:28.870Z,-2.53
2022-12-14T22:34:31.482Z,-2.51
2022-12-14T22:37:34.082Z,-2.65
2022-12-14T22:40:36.807Z,-2.49
2022-12-14T22:43:39.832Z,-2.80
2022-12-14T22:46:44.082Z,-2.61
2022-12-14T22:49:47.039Z,-2.66
2022-12-14T22:52:49.919Z,-2.54
2022-12-14T22:55:52.983Z,-2.77
2022-12-14T22:59:04.418Z,-2.84
2022-12-14T23:02:08.705Z,-2.93
2022-12-14T23:05:12.969Z,-2.68
2022-12-14T23:08:16.010Z,-2.67
2022-12-14T23:11:36.263Z,-2.82
2022-12-14T23:14:56.538Z,-2.91
2022-12-14T23:18:21.074Z,-2.98
2022-12-14T23:21:41.376Z,-3.00
2022-12-14T23:25:01.600Z,-2.90
2022-12-14T23:28:22.357Z,-2.85
2022-12-14T23:31:42.725Z,-2.97
2022-12-14T23:35:04.498Z,-3.01
2022-12-14T23:38:25.326Z,-3.09
2022-12-14T23:41:45.532Z,-3.12
2022-12-14T23:45:05.769Z,-3.08
2022-12-14T23:48:26.039Z,-3.06
2022-12-14T23:51:47.625Z,-3.06
2022-12-14T23:55:07.841Z,-3.16
2022-12-14T23:58:28.104Z,-3.31
